Airfield :
LOGIN :

Register | Disclaimer

   EN    FR    IT 

 










Legend :    VFR   Marginal VFR   IFR   Intensive IFR   Very Intensive IFR
Visi :
Ceiling :
>= 8 km
>= 3000ft
5 to 8 km
1000 to 3000 ft
1500m to 5 km
500 to 1000 ft
800 to 1500m
200 to 500 ft
< 800m
< 200 ft
Symbols :   Thunderstorms  Fog  Heavy snow  Heavy precipitations  Wind > 20 kt
SIGMETs :     Misc.  Thunderstorms  Icing  Turbulence  Mountain Waves  Volcanic Ashes







- Airport Elevation : 989 ft
- IATA code : TRN


LIMF - Torino Caselle

CURRENT METAR :
  • 130520Z 06002KT 9999 BKN070 02/M04 Q1015

EXPIRED METARs :
  • 130450Z 03001KT 9999 BKN070 02/M04 Q1015
  • 130420Z 07002KT 9999 BKN070 01/M02 Q1015
  • 130350Z VRB01KT 9999 BKN070 01/M02 Q1015
  • 130320Z 05002KT 9999 BKN070 01/M02 Q1016
  • 130250Z 00000KT 9999 BKN070 02/M02 Q1016

TAF TAF LIMF
Valid from the 13 at 06:00 until the 14 at 06:00 UTC


130500Z 1306/1406 VRB05KT 9999 BKN060
No reported NOTAMs for that airfield.
1 SIGMET reported for the Milano FIR (LIMM) :
 
Severe icing
LIMM SIGMET 2 VALID 130530/130800 LIIP
LIMM MILANO FIR SEV ICE FCST WI N4421 E00652 - N4505 E00630 - N4553 E00650 - N4513 E00844 - N4505 E01150 - N4333 E01324 - N4343 E01113 - N4335 E01019 - N4417 E00900 - N4349 E00724 - N4421 E00652 FL020/120 STNR NC=



MET'MAP, your aeronautical weather chart ! - Copyright ORBIFLY December 2007 - Disclaimer

ORBIFLY MET'MAP TEAM :

Programming & Development : Alexandra Zaïnal
Concept & Development : Baudouin d'Aumeries
Co-Development & Prog : Marc-Olivier Méhu
Technical & hardware support : Manuel Goepfert

Contact : metmap@orbifly.com




SOURCES & CREDITS :

   NOAA